Time;durP1;ratioP1;P1;durP2;ratioP2;P2;SDS_P1;SDS_P2;PMS_P1;PMS_P2;Temp;Humidity;BMP_temperature;BMP_pressure;BME280_temperature;BME280_humidity;BME280_pressure;Samples;Min_cycle;Max_cycle;Signal;HPM_P1;HPM_P2
2022/01/04 00:04:40;;;;;;;1.90;1.23;;;13.00;37.90;;;;;;10414870;28;20237;-76
2022/01/04 00:09:45;;;;;;;2.37;1.60;;;12.90;38.10;;;;;;10424298;28;20229;-76
2022/01/04 00:14:48;;;;;;;2.23;1.40;;;12.80;38.00;;;;;;10428067;28;20221;-76
2022/01/04 00:19:52;;;;;;;2.17;1.23;;;12.70;38.20;;;;;;10425493;28;20604;-77
2022/01/04 00:24:55;;;;;;;2.47;1.70;;;12.70;38.60;;;;;;10423255;28;21695;-76
2022/01/04 00:29:59;;;;;;;2.20;1.67;;;12.60;38.30;;;;;;10429161;28;20517;-69
2022/01/04 00:35:04;;;;;;;1.97;1.70;;;12.60;38.40;;;;;;10427169;28;20228;-69
2022/01/04 00:40:08;;;;;;;3.57;2.20;;;12.60;38.80;;;;;;10425809;28;20233;-70
2022/01/04 00:45:11;;;;;;;4.23;3.37;;;12.50;38.70;;;;;;10422172;28;20864;-69
2022/01/04 00:50:16;;;;;;;5.40;2.73;;;12.50;38.70;;;;;;10421219;28;20328;-69
2022/01/04 00:55:19;;;;;;;4.10;2.33;;;12.40;39.00;;;;;;10430040;28;20725;-69
2022/01/04 01:00:23;;;;;;;2.43;2.10;;;12.40;39.00;;;;;;10423632;28;20229;-69
2022/01/04 01:05:27;;;;;;;3.43;1.70;;;12.30;39.00;;;;;;10425044;28;20847;-69
2022/01/04 01:10:42;;;;;;;2.43;1.90;;;12.30;39.40;;;;;;10420935;28;20303;-69
2022/01/04 01:15:46;;;;;;;1.70;1.50;;;12.30;39.10;;;;;;10423601;28;20740;-69
2022/01/04 01:20:51;;;;;;;1.60;1.40;;;12.20;39.20;;;;;;10419932;28;20280;-69
2022/01/04 01:25:55;;;;;;;2.47;1.47;;;12.20;39.60;;;;;;10421272;28;20236;-69
2022/01/04 01:30:58;;;;;;;2.07;1.30;;;12.20;39.50;;;;;;10423658;28;20225;-69
2022/01/04 01:36:03;;;;;;;1.80;1.00;;;12.20;39.60;;;;;;10421393;28;20221;-76
2022/01/04 01:41:06;;;;;;;2.23;1.10;;;12.10;40.10;;;;;;10425963;28;20226;-76
2022/01/04 01:46:10;;;;;;;1.20;1.00;;;12.10;40.10;;;;;;10419064;28;20744;-76
2022/01/04 01:51:17;;;;;;;1.10;1.00;;;12.20;40.50;;;;;;10420324;28;20249;-76
2022/01/04 01:56:20;;;;;;;1.73;0.90;;;12.20;41.00;;;;;;10421521;28;20236;-77
2022/01/04 02:01:23;;;;;;;1.77;1.27;;;12.30;40.90;;;;;;10419635;28;20272;-76
2022/01/04 02:06:29;;;;;;;1.10;1.00;;;12.40;41.00;;;;;;10423617;28;20232;-76
2022/01/04 02:11:32;;;;;;;2.13;1.10;;;12.40;41.40;;;;;;10419883;28;20240;-76
2022/01/04 02:16:36;;;;;;;1.20;1.00;;;12.50;41.10;;;;;;10424303;28;20233;-76
2022/01/04 02:21:40;;;;;;;1.73;1.00;;;12.50;40.90;;;;;;10421585;28;20232;-76
2022/01/04 02:26:44;;;;;;;2.17;1.00;;;12.60;41.20;;;;;;10422198;28;20595;-76
2022/01/04 02:31:47;;;;;;;1.17;1.03;;;12.60;40.80;;;;;;10417641;28;20218;-76
2022/01/04 02:36:51;;;;;;;1.57;1.20;;;12.60;40.80;;;;;;10418999;28;20278;-76
2022/01/04 02:41:54;;;;;;;1.57;1.03;;;12.60;41.00;;;;;;10412790;28;20247;-76
2022/01/04 02:46:58;;;;;;;1.93;1.00;;;12.60;40.80;;;;;;10419117;28;20221;-76
2022/01/04 02:52:03;;;;;;;1.87;1.23;;;12.50;40.60;;;;;;10415538;28;20732;-76
2022/01/04 02:57:06;;;;;;;1.63;1.00;;;12.50;41.20;;;;;;10421273;28;21002;-76
2022/01/04 03:02:09;;;;;;;1.37;1.20;;;12.50;40.80;;;;;;10421024;28;20577;-76
2022/01/04 03:07:15;;;;;;;1.57;1.00;;;12.40;40.90;;;;;;10424523;28;20240;-75
2022/01/04 03:12:18;;;;;;;1.30;1.20;;;12.40;41.50;;;;;;10423019;28;20217;-76
2022/01/04 03:17:21;;;;;;;1.30;1.20;;;12.30;41.00;;;;;;10423500;28;20234;-76
2022/01/04 03:22:26;;;;;;;1.47;1.07;;;12.20;41.20;;;;;;10421193;28;20233;-76
2022/01/04 03:27:29;;;;;;;1.63;1.30;;;12.20;41.90;;;;;;10419303;28;20232;-76
2022/01/04 03:32:33;;;;;;;1.90;1.20;;;12.20;41.50;;;;;;10421659;28;20227;-76
2022/01/04 03:37:37;;;;;;;1.33;1.10;;;12.20;41.60;;;;;;10415242;28;20233;-76
2022/01/04 03:42:41;;;;;;;1.90;1.27;;;12.10;41.80;;;;;;10420536;28;20248;-76
2022/01/04 03:47:44;;;;;;;1.23;1.10;;;12.10;42.50;;;;;;10420469;28;20221;-77
2022/01/04 03:52:48;;;;;;;1.30;1.20;;;12.10;41.80;;;;;;10417617;28;20222;-76
2022/01/04 03:57:53;;;;;;;1.93;1.20;;;12.10;41.80;;;;;;10415864;28;20225;-76
2022/01/04 04:02:56;;;;;;;1.50;1.20;;;12.10;41.80;;;;;;10417877;28;20731;-76
2022/01/04 04:08:01;;;;;;;1.30;1.20;;;12.20;41.60;;;;;;10423198;28;20612;-76
2022/01/04 04:13:04;;;;;;;2.70;1.10;;;12.20;41.90;;;;;;10414401;28;20220;-76
2022/01/04 04:18:09;;;;;;;1.40;1.20;;;12.20;41.90;;;;;;10417201;28;20722;-75
2022/01/04 04:23:14;;;;;;;2.07;1.17;;;12.20;41.90;;;;;;10419336;28;20314;-76
2022/01/04 04:28:17;;;;;;;1.70;1.10;;;12.20;41.90;;;;;;10420291;28;20611;-76
2022/01/04 04:33:20;;;;;;;1.90;0.97;;;12.20;41.90;;;;;;10417458;28;20228;-76
2022/01/04 04:38:25;;;;;;;1.60;1.10;;;12.20;41.90;;;;;;10419539;28;20603;-76
2022/01/04 04:43:28;;;;;;;1.43;1.30;;;12.20;41.90;;;;;;10414482;28;20239;-76
2022/01/04 04:48:32;;;;;;;1.27;1.13;;;12.20;41.90;;;;;;10421600;28;20247;-76
2022/01/04 04:53:36;;;;;;;1.30;1.10;;;12.10;41.80;;;;;;10419409;28;20571;-76
2022/01/04 04:58:39;;;;;;;1.30;1.20;;;12.10;41.80;;;;;;10415554;28;20226;-77
2022/01/04 05:03:42;;;;;;;2.10;1.13;;;12.10;41.80;;;;;;10421522;28;20226;-76
2022/01/04 05:08:47;;;;;;;1.77;1.20;;;12.10;41.80;;;;;;10423736;28;20937;-76
2022/01/04 05:13:50;;;;;;;1.73;1.40;;;12.10;41.80;;;;;;10422835;28;20225;-76
2022/01/04 05:18:54;;;;;;;1.40;1.20;;;12.10;41.80;;;;;;10424299;28;20228;-76
2022/01/04 05:23:58;;;;;;;1.77;1.20;;;12.10;41.80;;;;;;10420936;28;20225;-76
2022/01/04 05:29:02;;;;;;;1.83;1.23;;;12.10;41.80;;;;;;10426323;28;20229;-71
2022/01/04 05:34:05;;;;;;;1.97;1.20;;;12.00;41.70;;;;;;10420717;28;20721;-75
2022/01/04 05:39:10;;;;;;;1.77;1.30;;;12.00;41.70;;;;;;10422834;28;20242;-76
2022/01/04 05:44:13;;;;;;;1.20;1.10;;;12.00;42.10;;;;;;10423537;28;20235;-76
2022/01/04 05:49:16;;;;;;;2.40;1.20;;;12.00;41.70;;;;;;10427247;28;20235;-76
2022/01/04 05:54:21;;;;;;;1.60;1.50;;;12.00;41.70;;;;;;10422319;28;20315;-76
2022/01/04 05:59:24;;;;;;;1.40;1.30;;;12.00;42.20;;;;;;10423920;28;20604;-76
2022/01/04 06:04:27;;;;;;;1.93;1.50;;;12.00;41.70;;;;;;10423796;28;20248;-76
2022/01/04 06:09:41;;;;;;;2.50;1.63;;;12.00;41.70;;;;;;10425274;28;20225;-76
2022/01/04 06:14:53;;;;;;;2.00;1.80;;;12.00;43.00;;;;;;10424339;28;20239;-76
2022/01/04 06:19:58;;;;;;;4.60;2.90;;;12.00;41.90;;;;;;10425140;28;20568;-76
2022/01/04 06:25:02;;;;;;;2.90;2.57;;;12.00;42.00;;;;;;10423539;28;20229;-76
2022/01/04 06:30:07;;;;;;;2.00;1.90;;;12.00;42.60;;;;;;10423744;28;20231;-76
2022/01/04 06:35:10;;;;;;;2.30;2.07;;;11.90;42.40;;;;;;10425170;28;20239;-76
2022/01/04 06:40:15;;;;;;;2.13;1.93;;;11.90;42.50;;;;;;10424874;28;20595;-76
2022/01/04 06:45:18;;;;;;;2.67;2.13;;;11.90;43.10;;;;;;10419637;28;20240;-76
2022/01/04 06:50:22;;;;;;;2.73;1.60;;;11.90;42.90;;;;;;10423570;28;20253;-76
2022/01/04 06:55:26;;;;;;;1.70;1.60;;;11.90;43.10;;;;;;10423518;28;20228;-76
2022/01/04 07:00:29;;;;;;;2.93;1.53;;;11.90;43.60;;;;;;10418402;28;20593;-76
2022/01/04 07:05:34;;;;;;;2.17;1.97;;;11.90;43.30;;;;;;10422771;28;20245;-76
2022/01/04 07:10:39;;;;;;;2.50;2.30;;;11.80;43.40;;;;;;10419237;28;20580;-76
2022/01/04 07:15:42;;;;;;;1.93;1.83;;;11.80;43.90;;;;;;10422508;28;20240;-76
2022/01/04 07:20:45;;;;;;;2.53;1.80;;;11.80;43.50;;;;;;10424091;28;20225;-76
2022/01/04 07:25:51;;;;;;;2.23;1.90;;;11.90;43.80;;;;;;10422096;28;20228;-76
2022/01/04 07:30:54;;;;;;;1.60;1.40;;;11.90;44.40;;;;;;10419326;28;20222;-76
2022/01/04 07:35:57;;;;;;;2.50;1.50;;;11.90;43.80;;;;;;10418254;28;20659;-76
2022/01/04 07:41:06;;;;;;;1.80;1.50;;;11.90;43.80;;;;;;10422543;28;20471;-75
2022/01/04 07:46:09;;;;;;;4.03;1.60;;;11.90;44.50;;;;;;10420218;28;20229;-76
2022/01/04 07:51:12;;;;;;;1.93;1.77;;;11.90;44.10;;;;;;10415332;28;20586;-75
2022/01/04 07:56:17;;;;;;;2.10;1.83;;;11.90;44.10;;;;;;10416422;28;20548;-76
2022/01/04 08:01:20;;;;;;;5.60;3.30;;;12.00;44.70;;;;;;10415510;28;20604;-76
2022/01/04 08:06:24;;;;;;;3.70;3.40;;;12.00;44.30;;;;;;10416462;28;20237;-75
2022/01/04 08:11:28;;;;;;;3.00;1.80;;;12.10;44.50;;;;;;10414572;28;20225;-76
2022/01/04 08:16:32;;;;;;;2.60;1.63;;;12.20;45.10;;;;;;10413355;28;20237;-76
2022/01/04 08:21:35;;;;;;;2.00;1.90;;;12.20;45.00;;;;;;10415321;28;20221;-76
2022/01/04 08:26:39;;;;;;;3.50;3.20;;;12.30;45.60;;;;;;10413805;28;20226;-76
2022/01/04 08:31:43;;;;;;;3.07;2.87;;;12.50;46.40;;;;;;10422322;28;20224;-76
2022/01/04 08:36:46;;;;;;;3.13;2.93;;;12.70;45.90;;;;;;10426925;28;20233;-76
2022/01/04 08:41:52;;;;;;;3.83;3.13;;;12.80;45.90;;;;;;10424062;28;20610;-76
2022/01/04 08:46:55;;;;;;;2.40;2.20;;;12.90;46.00;;;;;;10421625;28;20230;-75
2022/01/04 08:51:59;;;;;;;3.13;2.27;;;13.10;45.80;;;;;;10422803;28;20612;-75
2022/01/04 08:57:04;;;;;;;2.83;2.30;;;13.10;45.70;;;;;;10428950;28;20218;-75
2022/01/04 09:02:08;;;;;;;1.53;1.40;;;13.20;46.20;;;;;;10424295;28;20730;-75
2022/01/04 09:07:11;;;;;;;1.40;1.30;;;13.20;45.80;;;;;;10426712;28;20663;-75
2022/01/04 09:12:18;;;;;;;1.33;1.23;;;13.30;45.70;;;;;;10423308;28;20275;-74
2022/01/04 09:22:43;;;;;;;2.90;2.33;;;13.40;45.60;;;;;;10428088;28;20699;-75
2022/01/04 09:27:47;;;;;;;2.90;2.40;;;13.40;45.60;;;;;;10428445;28;20224;-75
2022/01/04 09:32:52;;;;;;;3.40;2.50;;;13.50;46.00;;;;;;10424083;28;20217;-75
2022/01/04 09:37:55;;;;;;;2.47;2.27;;;13.50;45.60;;;;;;10420815;28;20225;-75
2022/01/04 09:43:01;;;;;;;1.73;1.60;;;13.50;45.60;;;;;;10425933;28;20230;-75
2022/01/04 09:48:05;;;;;;;2.00;1.73;;;13.60;46.00;;;;;;10416218;28;20244;-75
2022/01/04 09:53:12;;;;;;;2.20;1.90;;;13.60;45.40;;;;;;10425222;28;20525;-75
2022/01/04 09:58:18;;;;;;;1.50;1.40;;;13.60;45.60;;;;;;10419463;28;20230;-75
2022/01/04 10:03:25;;;;;;;1.90;1.70;;;13.60;45.60;;;;;;10421809;28;20226;-75
2022/01/04 10:08:29;;;;;;;2.10;1.90;;;13.60;45.60;;;;;;10417564;28;20228;-76
2022/01/04 10:13:34;;;;;;;2.00;1.80;;;13.60;45.40;;;;;;10415333;28;20225;-76
2022/01/04 10:18:37;;;;;;;2.13;1.97;;;13.60;45.70;;;;;;10418712;28;20237;-76
2022/01/04 10:23:49;;;;;;;2.93;2.20;;;13.60;45.50;;;;;;10420846;28;20241;-76
2022/01/04 10:28:54;;;;;;;2.87;2.40;;;13.60;46.50;;;;;;10419673;28;20233;-77
2022/01/04 10:33:57;;;;;;;1.60;1.50;;;13.70;46.10;;;;;;10423170;28;20229;-77
2022/01/04 10:39:08;;;;;;;1.40;1.30;;;13.70;45.70;;;;;;10417823;28;20239;-77
2022/01/04 10:44:13;;;;;;;1.30;1.20;;;13.80;46.80;;;;;;10418006;28;20575;-77
2022/01/04 10:49:17;;;;;;;1.20;1.10;;;13.80;45.90;;;;;;10422533;28;20229;-76
2022/01/04 10:54:21;;;;;;;1.57;0.90;;;14.00;46.20;;;;;;10420900;28;20462;-77
2022/01/04 10:59:29;;;;;;;1.00;0.90;;;14.30;45.90;;;;;;10413718;28;20239;-77
2022/01/04 11:04:32;;;;;;;1.00;0.90;;;14.50;45.80;;;;;;10418879;28;20233;-77
2022/01/04 11:09:36;;;;;;;0.90;0.90;;;14.80;45.50;;;;;;10418690;28;20259;-77
2022/01/04 11:14:42;;;;;;;2.43;2.23;;;15.00;45.00;;;;;;10419839;28;20686;-76
2022/01/04 11:19:45;;;;;;;1.33;1.23;;;15.20;44.60;;;;;;10418958;28;20718;-75
2022/01/04 11:24:48;;;;;;;2.03;1.20;;;15.40;44.70;;;;;;10418476;28;20225;-75
2022/01/04 11:29:58;;;;;;;2.87;1.00;;;15.60;44.70;;;;;;10419805;28;20603;-80
2022/01/04 11:35:08;;;;;;;1.40;1.30;;;15.70;44.00;;;;;;10415903;28;20232;-76
2022/01/04 11:40:26;;;;;;;1.43;1.33;;;15.90;43.70;;;;;;10409244;28;20217;-75
2022/01/04 11:45:42;;;;;;;1.90;1.80;;;16.10;44.00;;;;;;10404976;28;20240;-75
2022/01/04 11:50:45;;;;;;;1.97;1.40;;;16.20;43.20;;;;;;10411168;28;20224;-75
2022/01/04 11:55:50;;;;;;;2.63;1.53;;;16.30;43.30;;;;;;10415038;28;20220;-75
2022/01/04 12:01:03;;;;;;;1.30;1.30;;;16.40;42.70;;;;;;10410359;28;20499;-76
2022/01/04 12:06:08;;;;;;;1.20;1.20;;;16.40;42.60;;;;;;10412127;28;20247;-76
2022/01/04 12:11:22;;;;;;;1.10;1.00;;;16.50;42.60;;;;;;10409463;28;20229;-76
2022/01/04 12:16:35;;;;;;;1.77;1.30;;;16.50;41.70;;;;;;10415767;28;20329;-76
2022/01/04 12:21:44;;;;;;;1.10;1.10;;;16.60;42.10;;;;;;10410604;28;20271;-76
2022/01/04 12:26:47;;;;;;;1.37;1.20;;;16.70;41.40;;;;;;10410136;28;20240;-76
2022/01/04 12:31:54;;;;;;;1.40;1.30;;;16.70;42.00;;;;;;10413572;28;20505;-76
2022/01/04 12:36:57;;;;;;;5.13;4.73;;;16.80;41.30;;;;;;10417920;28;20708;-76
2022/01/04 12:42:01;;;;;;;2.80;2.50;;;16.90;41.60;;;;;;10415863;28;20705;-76
2022/01/04 12:47:08;;;;;;;2.70;2.50;;;16.90;41.20;;;;;;10417299;28;20260;-76
2022/01/04 12:52:14;;;;;;;1.70;1.60;;;17.00;40.70;;;;;;10421091;28;20578;-76
2022/01/04 12:57:20;;;;;;;2.50;2.30;;;17.00;41.00;;;;;;10420514;28;20467;-76
2022/01/04 13:02:26;;;;;;;1.83;1.73;;;17.00;40.60;;;;;;10417407;28;20247;-76
2022/01/04 13:07:32;;;;;;;2.20;2.00;;;17.10;40.30;;;;;;10417510;28;20589;-75
2022/01/04 13:12:39;;;;;;;2.40;1.90;;;17.10;40.70;;;;;;10415120;28;20236;-69
2022/01/04 13:17:45;;;;;;;1.70;1.60;;;17.10;40.50;;;;;;10421556;28;20689;-71
2022/01/04 13:22:48;;;;;;;1.80;1.50;;;17.20;40.00;;;;;;10432511;28;20229;-70
2022/01/04 13:27:52;;;;;;;3.20;2.90;;;17.20;40.60;;;;;;10427989;28;20225;-69
2022/01/04 13:32:59;;;;;;;2.17;1.97;;;17.20;40.20;;;;;;10426059;28;20237;-70
2022/01/04 13:38:05;;;;;;;2.27;1.90;;;17.30;39.80;;;;;;10419804;28;20225;-70
2022/01/04 13:43:10;;;;;;;2.00;1.80;;;17.30;39.80;;;;;;10421656;28;20220;-75
2022/01/04 13:48:22;;;;;;;3.80;1.50;;;17.40;40.10;;;;;;10421373;28;20358;-75
2022/01/04 13:53:25;;;;;;;1.80;1.70;;;17.40;39.50;;;;;;10424175;28;20233;-75
2022/01/04 13:58:44;;;;;;;2.57;1.60;;;17.40;40.00;;;;;;10420485;28;20228;-76
2022/01/04 14:03:51;;;;;;;1.40;1.30;;;17.30;39.10;;;;;;10423801;28;20652;-75
2022/01/04 14:08:54;;;;;;;1.90;1.20;;;17.30;38.80;;;;;;10423795;28;20221;-75
2022/01/04 14:14:07;;;;;;;1.50;1.40;;;17.20;39.50;;;;;;10423646;28;20701;-75
2022/01/04 14:19:14;;;;;;;1.20;1.20;;;17.20;39.10;;;;;;10424244;28;20224;-76
2022/01/04 14:24:40;;;;;;;0.90;0.90;;;17.10;39.10;;;;;;10425173;28;20233;-78
2022/01/04 14:29:46;;;;;;;1.10;1.10;;;17.00;39.40;;;;;;10422933;28;20224;-69
2022/01/04 14:34:51;;;;;;;1.23;1.00;;;16.90;39.60;;;;;;10421966;28;20227;-69
2022/01/04 14:39:57;;;;;;;0.97;0.97;;;16.80;39.90;;;;;;10421817;28;20614;-71
2022/01/04 14:45:02;;;;;;;0.83;0.83;;;16.70;39.80;;;;;;10425557;28;20221;-71
2022/01/04 14:50:08;;;;;;;1.00;1.00;;;16.70;39.80;;;;;;10418261;28;22589;-70
2022/01/04 14:55:12;;;;;;;1.03;1.00;;;16.60;39.70;;;;;;10421653;28;20239;-70
2022/01/04 15:00:17;;;;;;;1.10;1.00;;;16.60;40.70;;;;;;10425385;28;20663;-70
2022/01/04 15:05:22;;;;;;;1.47;1.37;;;16.60;40.20;;;;;;10416459;28;20681;-69
2022/01/04 15:10:26;;;;;;;1.93;1.30;;;16.50;40.30;;;;;;10418797;28;20229;-71
2022/01/04 15:15:30;;;;;;;2.30;1.40;;;16.50;40.50;;;;;;10418914;28;20224;-71
2022/01/04 15:20:35;;;;;;;1.30;1.20;;;16.40;40.50;;;;;;10423384;28;20225;-71
2022/01/04 15:25:39;;;;;;;1.30;1.20;;;16.40;40.80;;;;;;10424007;28;20279;-69
2022/01/04 15:30:42;;;;;;;1.30;1.20;;;16.30;40.90;;;;;;10419474;28;20283;-69
2022/01/04 15:35:48;;;;;;;1.30;1.20;;;16.30;41.00;;;;;;10418997;28;20270;-69
2022/01/04 15:40:53;;;;;;;1.70;1.10;;;16.20;41.10;;;;;;10421557;28;20320;-69
2022/01/04 15:45:56;;;;;;;2.10;1.90;;;16.10;41.20;;;;;;10418418;28;20237;-69
2022/01/04 15:51:01;;;;;;;3.00;2.00;;;16.00;41.10;;;;;;10420937;28;20861;-69
2022/01/04 15:56:06;;;;;;;2.50;2.30;;;16.00;41.30;;;;;;10421930;28;20591;-70
2022/01/04 16:01:09;;;;;;;3.60;1.90;;;16.00;41.40;;;;;;10419972;28;20251;-69
2022/01/04 16:06:15;;;;;;;2.00;1.80;;;16.00;41.40;;;;;;10419783;28;20307;-69
2022/01/04 16:11:18;;;;;;;2.33;2.13;;;15.90;41.30;;;;;;10419725;28;20221;-69
2022/01/04 16:16:27;;;;;;;1.63;1.53;;;15.90;41.30;;;;;;10419123;28;20313;-71
2022/01/04 16:21:36;;;;;;;1.40;1.30;;;15.90;41.50;;;;;;10421286;28;20243;-71
2022/01/04 16:26:44;;;;;;;1.30;1.20;;;15.80;41.50;;;;;;10421226;28;20229;-75
2022/01/04 16:31:49;;;;;;;1.70;1.40;;;15.80;41.60;;;;;;10421567;28;20225;-77
2022/01/04 16:36:56;;;;;;;1.40;1.30;;;15.80;41.50;;;;;;10418648;28;20236;-71
2022/01/04 16:42:02;;;;;;;1.30;1.20;;;15.70;41.50;;;;;;10417446;28;20229;-71
2022/01/04 16:47:05;;;;;;;1.23;1.00;;;15.70;41.60;;;;;;10413170;28;20596;-71
2022/01/04 16:52:10;;;;;;;0.93;0.80;;;15.70;41.50;;;;;;10422329;28;20249;-71
2022/01/04 16:57:15;;;;;;;0.80;0.60;;;15.60;40.80;;;;;;10426934;28;20321;-71
2022/01/04 17:02:18;;;;;;;0.57;0.57;;;15.40;40.50;;;;;;10424118;28;20325;-71
2022/01/04 17:07:39;;;;;;;0.53;0.53;;;15.20;40.30;;;;;;10422922;28;20232;-71
2022/01/04 17:15:32;;;;;;;0.90;0.60;;;14.90;39.90;;;;;;10421214;28;20224;-71
2022/01/04 17:18:19;;;;;;;0.73;0.73;;;14.60;39.50;;;;;;10432016;28;20224;-71
2022/01/04 17:23:25;;;;;;;0.60;0.60;;;14.30;39.70;;;;;;10423833;28;20621;-71
2022/01/04 17:28:29;;;;;;;0.50;0.50;;;14.10;39.70;;;;;;10429625;28;20244;-71
2022/01/04 17:33:32;;;;;;;0.50;0.50;;;14.00;40.20;;;;;;10423189;28;20757;-71
2022/01/04 17:38:37;;;;;;;0.97;0.97;;;13.90;40.20;;;;;;10424193;28;20264;-72
2022/01/04 17:43:40;;;;;;;0.60;0.60;;;13.80;40.30;;;;;;10426612;28;20221;-71
2022/01/04 17:48:44;;;;;;;0.80;0.80;;;13.80;40.30;;;;;;10423820;28;20243;-71
2022/01/04 17:53:50;;;;;;;1.00;1.00;;;13.80;40.30;;;;;;10419826;28;20692;-71
2022/01/04 17:59:01;;;;;;;0.60;0.60;;;13.80;40.10;;;;;;10418301;28;20232;-70
2022/01/04 18:04:04;;;;;;;0.70;0.70;;;13.80;39.70;;;;;;10420076;28;20221;-70
2022/01/04 18:09:09;;;;;;;0.60;0.60;;;13.70;39.70;;;;;;10420535;28;20605;-70
2022/01/04 18:14:12;;;;;;;0.60;0.60;;;13.70;39.70;;;;;;10418653;28;20225;-70
2022/01/04 18:19:15;;;;;;;0.60;0.60;;;13.60;39.60;;;;;;10419944;28;20257;-69
2022/01/04 18:24:28;;;;;;;1.00;1.00;;;13.50;39.50;;;;;;10418993;28;20968;-70
2022/01/04 18:29:32;;;;;;;1.67;1.57;;;13.40;39.80;;;;;;10420813;28;20225;-76
2022/01/04 18:34:36;;;;;;;0.70;0.70;;;13.30;39.70;;;;;;10418597;28;20229;-72
2022/01/04 18:39:41;;;;;;;0.70;0.70;;;13.20;39.70;;;;;;10427757;28;20234;-71
2022/01/04 18:44:44;;;;;;;0.80;0.80;;;13.10;39.70;;;;;;10423289;28;20218;-71
2022/01/04 18:49:47;;;;;;;1.13;0.90;;;13.00;39.70;;;;;;10420922;28;20730;-71
2022/01/04 18:54:52;;;;;;;0.60;0.60;;;12.80;40.70;;;;;;10417711;28;20224;-72
2022/01/04 18:59:55;;;;;;;0.60;0.60;;;12.60;39.70;;;;;;10421338;28;20222;-71
2022/01/04 19:04:58;;;;;;;0.57;0.57;;;12.40;39.30;;;;;;10408713;28;20627;-71
2022/01/04 19:10:04;;;;;;;0.50;0.50;;;12.10;39.30;;;;;;10421471;28;20612;-71
2022/01/04 19:15:09;;;;;;;0.50;0.50;;;11.80;39.80;;;;;;10411713;28;20240;-71
2022/01/04 19:20:12;;;;;;;0.40;0.40;;;11.50;40.00;;;;;;10408408;28;20225;-69
2022/01/04 19:25:17;;;;;;;0.60;0.60;;;11.30;40.10;;;;;;10406645;28;20230;-69
2022/01/04 19:30:22;;;;;;;1.93;0.90;;;11.10;40.90;;;;;;10406082;28;20764;-75
2022/01/04 19:40:48;;;;;;;0.60;0.60;;;10.90;40.80;;;;;;10412549;28;20228;-71
2022/01/04 19:45:52;;;;;;;0.70;0.70;;;10.70;40.80;;;;;;10416994;28;20249;-71
2022/01/04 19:50:58;;;;;;;0.70;0.70;;;10.50;41.10;;;;;;10419148;28;20600;-71
2022/01/04 19:56:04;;;;;;;0.70;0.70;;;10.40;41.40;;;;;;10411676;28;20229;-71
2022/01/04 20:01:07;;;;;;;0.87;0.80;;;10.30;41.90;;;;;;10403986;28;20768;-71
2022/01/04 20:06:10;;;;;;;0.80;0.80;;;10.20;41.80;;;;;;10420707;28;20221;-71
2022/01/04 20:11:18;;;;;;;0.70;0.70;;;10.10;41.80;;;;;;10418654;28;20233;-71
2022/01/04 20:16:22;;;;;;;0.70;0.70;;;10.00;42.50;;;;;;10411178;28;20246;-71
2022/01/04 20:21:25;;;;;;;0.60;0.60;;;9.90;43.80;;;;;;10417518;28;20275;-69
2022/01/04 20:26:30;;;;;;;0.70;0.70;;;9.90;43.00;;;;;;10420563;28;20316;-71
2022/01/04 20:31:34;;;;;;;0.80;0.80;;;9.80;43.60;;;;;;10420155;28;20247;-71
2022/01/04 20:36:37;;;;;;;0.70;0.70;;;9.80;43.30;;;;;;10419676;28;20225;-71
2022/01/04 20:41:45;;;;;;;0.70;0.70;;;9.80;43.20;;;;;;10423817;28;20578;-71
2022/01/04 20:46:48;;;;;;;0.60;0.60;;;9.80;43.50;;;;;;10422386;28;20238;-71
2022/01/04 20:51:51;;;;;;;0.50;0.50;;;9.80;42.80;;;;;;10418585;28;20221;-71
2022/01/04 20:56:56;;;;;;;0.60;0.60;;;9.70;42.80;;;;;;10418311;28;20721;-71
2022/01/04 21:01:59;;;;;;;0.50;0.50;;;9.60;43.00;;;;;;10421179;28;20882;-71
2022/01/04 21:07:03;;;;;;;0.47;0.47;;;9.60;42.90;;;;;;10422319;28;20750;-71
2022/01/04 21:12:08;;;;;;;0.60;0.60;;;9.50;43.00;;;;;;10425565;28;20238;-75
2022/01/04 21:17:12;;;;;;;0.70;0.70;;;9.50;43.40;;;;;;10423866;28;20480;-71
2022/01/04 21:22:15;;;;;;;0.73;0.73;;;9.40;43.20;;;;;;10419629;28;20229;-71
2022/01/04 21:27:20;;;;;;;0.80;0.80;;;9.40;43.10;;;;;;10416875;28;20244;-75
2022/01/04 21:32:23;;;;;;;1.00;1.00;;;9.40;43.20;;;;;;10412669;28;20252;-71
2022/01/04 21:37:26;;;;;;;0.87;0.80;;;9.40;43.10;;;;;;10418383;28;20232;-69
2022/01/04 21:42:31;;;;;;;0.80;0.80;;;9.30;42.90;;;;;;10417270;28;20221;-69
2022/01/04 21:47:34;;;;;;;1.00;1.00;;;9.30;43.20;;;;;;10423550;28;20229;-69
2022/01/04 21:52:37;;;;;;;0.93;0.93;;;9.30;42.90;;;;;;10415119;28;20225;-69
2022/01/04 21:57:42;;;;;;;1.47;1.37;;;9.30;42.90;;;;;;10418476;28;20251;-69
2022/01/04 22:02:45;;;;;;;1.20;1.20;;;9.40;43.30;;;;;;10414489;28;20228;-74
2022/01/04 22:07:49;;;;;;;1.30;1.30;;;9.40;43.00;;;;;;10417157;28;20713;-71
2022/01/04 22:12:54;;;;;;;1.10;1.10;;;9.50;43.10;;;;;;10415183;28;20225;-69
2022/01/04 22:17:57;;;;;;;1.00;0.90;;;9.50;43.20;;;;;;10418212;28;20240;-69
2022/01/04 22:23:01;;;;;;;0.80;0.80;;;9.60;42.60;;;;;;10416334;28;20233;-70
2022/01/04 22:28:05;;;;;;;0.90;0.90;;;9.60;42.40;;;;;;10421020;28;20493;-71
2022/01/04 22:33:09;;;;;;;0.67;0.67;;;9.60;42.70;;;;;;10411037;28;20236;-69
2022/01/04 22:38:12;;;;;;;0.70;0.70;;;9.60;42.40;;;;;;10411666;28;20244;-69
2022/01/04 22:43:17;;;;;;;0.80;0.70;;;9.60;42.40;;;;;;10416529;28;20949;-71
2022/01/04 22:48:20;;;;;;;0.60;0.60;;;9.50;42.50;;;;;;10420223;28;20726;-70
2022/01/04 22:53:23;;;;;;;0.60;0.60;;;9.50;42.40;;;;;;10420512;28;20232;-70
2022/01/04 22:58:28;;;;;;;0.80;0.80;;;9.50;42.40;;;;;;10415388;28;20320;-71
2022/01/04 23:03:31;;;;;;;0.60;0.60;;;9.50;42.40;;;;;;10414216;28;20221;-70
2022/01/04 23:08:34;;;;;;;0.50;0.50;;;9.40;42.50;;;;;;10409495;28;20221;-70
2022/01/04 23:13:39;;;;;;;0.50;0.50;;;9.30;42.20;;;;;;10414508;28;20702;-71
2022/01/04 23:18:42;;;;;;;0.40;0.40;;;9.40;42.10;;;;;;10414629;28;20237;-69
2022/01/04 23:23:48;;;;;;;0.50;0.50;;;9.40;41.90;;;;;;10409796;28;20268;-69
2022/01/04 23:28:53;;;;;;;1.80;0.50;;;9.30;41.90;;;;;;10417292;28;20230;-71
2022/01/04 23:33:56;;;;;;;0.50;0.50;;;9.20;42.30;;;;;;10417000;28;20312;-70
2022/01/04 23:38:59;;;;;;;0.50;0.50;;;9.20;41.90;;;;;;10416589;28;20748;-69
2022/01/04 23:44:04;;;;;;;0.50;0.50;;;9.10;41.80;;;;;;10420604;28;20224;-69
2022/01/04 23:49:07;;;;;;;0.60;0.60;;;9.10;42.00;;;;;;10412990;28;20230;-69
2022/01/04 23:54:11;;;;;;;0.60;0.60;;;9.00;42.00;;;;;;10415961;28;20226;-69
2022/01/04 23:59:15;;;;;;;0.67;0.67;;;9.00;42.00;;;;;;10410191;28;20241;-69
